Time;durP1;ratioP1;P1;durP2;ratioP2;P2;SDS_P1;SDS_P2;PMS_P1;PMS_P2;Temp;Humidity;BMP_temperature;BMP_pressure;BME280_temperature;BME280_humidity;BME280_pressure;Samples;Min_cycle;Max_cycle;Signal;HPM_P1;HPM_P2
2022/10/07 00:01:18;;;;;;;;;;;22.00;45.40;20.80;102355.00;;;;5104985;27;19926;-69
2022/10/07 00:04:04;;;;;;;;;;;22.00;45.40;20.80;102352.00;;;;5089417;28;19930;-69
2022/10/07 00:06:50;;;;;;;;;;;22.00;45.40;20.80;102355.00;;;;5088642;28;19920;-69
2022/10/07 00:09:36;;;;;;;;;;;22.00;45.40;20.80;102348.00;;;;5088421;28;19966;-69
2022/10/07 00:12:22;;;;;;;;;;;22.00;45.40;20.80;102349.00;;;;5090096;28;19924;-69
2022/10/07 00:15:09;;;;;;;;;;;22.00;45.40;20.80;102348.00;;;;5089312;28;20192;-69
2022/10/07 00:17:55;;;;;;;;;;;22.00;45.40;20.80;102337.00;;;;5089399;28;19935;-69
2022/10/07 00:20:41;;;;;;;;;;;22.00;45.40;20.80;102335.00;;;;5088799;28;19920;-69
2022/10/07 00:23:27;;;;;;;;;;;22.00;45.40;20.80;102332.00;;;;5089632;28;19915;-69
2022/10/07 00:26:14;;;;;;;;;;;22.00;45.40;20.80;102332.00;;;;5096877;28;19943;-69
2022/10/07 00:29:00;;;;;;;;;;;22.00;45.40;20.80;102336.00;;;;5109642;27;19979;-69
2022/10/07 00:31:46;;;;;;;;;;;22.00;45.40;20.80;102330.00;;;;5112046;27;19924;-69
2022/10/07 00:34:32;;;;;;;;;;;21.90;45.30;20.80;102332.00;;;;5101720;28;19919;-69
2022/10/07 00:37:18;;;;;;;;;;;22.00;45.40;20.80;102325.00;;;;5094788;28;19927;-69
2022/10/07 00:40:04;;;;;;;;;;;22.00;45.40;20.80;102319.00;;;;5101267;28;19923;-69
2022/10/07 00:42:50;;;;;;;;;;;22.00;45.40;20.80;102318.00;;;;5096666;28;19955;-69
2022/10/07 00:45:36;;;;;;;;;;;22.00;45.40;20.80;102316.00;;;;5094905;28;19926;-69
2022/10/07 00:48:24;;;;;;;;;;;22.00;45.30;20.80;102312.00;;;;5112386;27;19931;-69
2022/10/07 00:51:11;;;;;;;;;;;21.90;46.00;20.80;102321.00;;;;5075052;28;20421;-69
2022/10/07 00:53:57;;;;;;;;;;;21.90;45.30;20.80;102311.00;;;;5081453;28;19966;-69
2022/10/07 00:56:43;;;;;;;;;;;21.90;45.30;20.80;102314.00;;;;5085220;28;19934;-69
2022/10/07 00:59:29;;;;;;;;;;;21.90;45.30;20.80;102310.00;;;;5095242;28;19923;-69
2022/10/07 01:02:15;;;;;;;;;;;21.90;45.30;20.80;102302.00;;;;5101035;28;20348;-70
2022/10/07 01:05:03;;;;;;;;;;;22.00;45.30;20.80;102302.00;;;;5096454;28;20428;-69
2022/10/07 01:07:49;;;;;;;;;;;21.90;45.30;20.80;102294.00;;;;5082429;28;19923;-69
2022/10/07 01:10:52;;;;;;;;;;;21.90;45.30;20.80;102285.00;;;;5093661;28;19969;-69
2022/10/07 01:13:41;;;;;;;;;;;22.00;45.30;20.80;102287.00;;;;5093763;28;20015;-69
2022/10/07 01:17:04;;;;;;;;;;;22.00;45.30;20.80;102284.00;;;;5108616;27;19970;-69
2022/10/07 01:20:07;;;;;;;;;;;22.00;45.30;20.80;102286.00;;;;5084343;28;19988;-69
2022/10/07 01:23:15;;;;;;;;;;;21.90;45.30;20.70;102274.00;;;;5110263;27;20357;-69
2022/10/07 01:26:06;;;;;;;;;;;21.90;45.30;20.70;102275.00;;;;5097445;28;19916;-69
2022/10/07 01:29:02;;;;;;;;;;;21.90;45.30;20.70;102270.00;;;;5095041;28;19970;-69
2022/10/07 01:31:52;;;;;;;;;;;21.90;45.20;20.70;102268.00;;;;5098773;28;19920;-69
2022/10/07 01:34:38;;;;;;;;;;;21.80;45.20;20.70;102261.00;;;;5106425;27;19920;-69
2022/10/07 01:37:24;;;;;;;;;;;21.90;45.20;20.70;102258.00;;;;5111292;27;20277;-69
2022/10/07 01:40:18;;;;;;;;;;;21.90;45.30;20.70;102258.00;;;;5106706;27;20356;-69
2022/10/07 01:43:04;;;;;;;;;;;21.90;45.20;20.70;102255.00;;;;5091379;28;20010;-69
2022/10/07 01:45:50;;;;;;;;;;;21.90;45.20;20.70;102243.00;;;;5087292;28;19915;-69
2022/10/07 01:48:36;;;;;;;;;;;21.90;45.30;20.70;102242.00;;;;5090905;28;20378;-69
2022/10/07 01:51:24;;;;;;;;;;;21.90;45.20;20.70;102241.00;;;;5080693;28;20330;-69
2022/10/07 01:54:35;;;;;;;;;;;21.90;45.20;20.70;102229.00;;;;5107870;27;19938;-69
2022/10/07 01:57:28;;;;;;;;;;;21.90;45.20;20.70;102231.00;;;;5096059;28;20346;-69
2022/10/07 02:00:14;;;;;;;;;;;21.90;45.20;20.70;102230.00;;;;5095831;28;19920;-69
2022/10/07 02:03:10;;;;;;;;;;;21.90;45.20;20.70;102224.00;;;;5110930;27;19924;-69
2022/10/07 02:06:08;;;;;;;;;;;21.90;45.20;20.70;102222.00;;;;5095251;28;19970;-69
2022/10/07 02:08:54;;;;;;;;;;;21.90;45.20;20.70;102220.00;;;;5094975;28;20392;-69
2022/10/07 02:11:40;;;;;;;;;;;21.90;45.20;20.70;102215.00;;;;5106837;27;19920;-69
2022/10/07 02:14:31;;;;;;;;;;;21.90;45.20;20.70;102217.00;;;;5108669;27;19920;-69
2022/10/07 02:17:17;;;;;;;;;;;21.90;45.20;20.70;102209.00;;;;5095954;28;19924;-69
2022/10/07 02:20:04;;;;;;;;;;;21.90;45.10;20.70;102195.00;;;;5108844;27;19930;-69
2022/10/07 02:22:51;;;;;;;;;;;21.90;45.10;20.70;102195.00;;;;5090536;28;19927;-70
2022/10/07 02:25:39;;;;;;;;;;;21.90;45.10;20.70;102199.00;;;;5111064;27;19954;-69
2022/10/07 02:28:25;;;;;;;;;;;21.90;45.20;20.70;102195.00;;;;5100501;27;19920;-69
2022/10/07 02:31:11;;;;;;;;;;;21.90;45.10;20.70;102189.00;;;;5087998;28;20362;-69
2022/10/07 02:33:57;;;;;;;;;;;21.90;45.10;20.70;102193.00;;;;5081974;28;19965;-69
2022/10/07 02:36:49;;;;;;;;;;;21.90;45.10;20.70;102186.00;;;;5095940;28;19971;-70
2022/10/07 02:39:35;;;;;;;;;;;21.90;45.10;20.70;102195.00;;;;5101696;27;20384;-69
2022/10/07 02:42:38;;;;;;;;;;;21.90;45.10;20.70;102187.00;;;;5071848;28;19916;-70
2022/10/07 02:45:27;;;;;;;;;;;21.90;45.10;20.70;102182.00;;;;5094288;28;20274;-70
2022/10/07 02:48:21;;;;;;;;;;;21.90;45.10;20.70;102171.00;;;;5108124;27;20404;-69
2022/10/07 02:51:09;;;;;;;;;;;21.90;45.10;20.70;102165.00;;;;5100785;27;19920;-69
2022/10/07 02:53:55;;;;;;;;;;;21.90;45.10;20.70;102171.00;;;;5112099;27;19924;-69
2022/10/07 02:56:41;;;;;;;;;;;21.90;45.10;20.70;102169.00;;;;5111717;27;19923;-69
2022/10/07 02:59:27;;;;;;;;;;;21.90;45.10;20.70;102168.00;;;;5107287;27;19982;-69
2022/10/07 03:02:20;;;;;;;;;;;21.90;45.10;20.70;102168.00;;;;5091638;28;19970;-69
2022/10/07 03:05:06;;;;;;;;;;;21.90;45.00;20.70;102165.00;;;;5097329;28;20381;-69
2022/10/07 03:08:17;;;;;;;;;;;21.90;45.10;20.70;102163.00;;;;5092206;28;19924;-69
2022/10/07 03:11:03;;;;;;;;;;;21.90;45.00;20.70;102165.00;;;;5104451;27;19923;-69
2022/10/07 03:13:49;;;;;;;;;;;21.90;45.00;20.60;102167.00;;;;5094387;28;19961;-69
2022/10/07 03:16:35;;;;;;;;;;;22.00;45.10;20.70;102163.00;;;;5091647;28;20308;-69
2022/10/07 03:19:21;;;;;;;;;;;21.90;45.00;20.70;102165.00;;;;5093026;28;20372;-69
2022/10/07 03:22:07;;;;;;;;;;;21.90;45.00;20.70;102155.00;;;;5091842;28;19924;-69
2022/10/07 03:24:53;;;;;;;;;;;21.90;45.00;20.70;102147.00;;;;5094383;28;20301;-69
2022/10/07 03:27:41;;;;;;;;;;;21.80;45.00;20.70;102146.00;;;;5094583;28;19916;-69
2022/10/07 03:30:27;;;;;;;;;;;21.90;45.00;20.60;102146.00;;;;5095678;28;19920;-69
2022/10/07 03:33:14;;;;;;;;;;;21.90;45.00;20.60;102144.00;;;;5098674;28;20590;-69
2022/10/07 03:36:00;;;;;;;;;;;21.80;44.90;20.60;102147.00;;;;5099728;28;20366;-69
2022/10/07 03:38:46;;;;;;;;;;;21.90;45.00;20.60;102138.00;;;;5091678;28;20365;-69
2022/10/07 03:41:32;;;;;;;;;;;21.80;44.90;20.60;102140.00;;;;5089592;28;19932;-70
2022/10/07 03:44:18;;;;;;;;;;;21.90;45.00;20.60;102143.00;;;;5100140;28;19920;-69
2022/10/07 03:47:04;;;;;;;;;;;21.90;44.90;20.60;102137.00;;;;5082708;28;20352;-69
2022/10/07 03:49:50;;;;;;;;;;;21.80;44.90;20.60;102135.00;;;;5112668;27;19916;-69
2022/10/07 03:52:36;;;;;;;;;;;21.80;44.90;20.60;102128.00;;;;5095754;28;19962;-69
2022/10/07 03:55:22;;;;;;;;;;;21.80;44.90;20.60;102126.00;;;;5095715;28;20444;-69
2022/10/07 03:58:08;;;;;;;;;;;21.90;44.90;20.60;102118.00;;;;5090467;28;19923;-69
2022/10/07 04:01:08;;;;;;;;;;;21.80;44.90;20.60;102122.00;;;;5090226;28;19923;-69
2022/10/07 04:03:54;;;;;;;;;;;21.80;44.90;20.60;102116.00;;;;5094021;28;19927;-69
2022/10/07 04:06:41;;;;;;;;;;;21.80;44.90;20.60;102110.00;;;;5097309;28;19916;-69
2022/10/07 04:09:29;;;;;;;;;;;21.80;44.90;20.60;102110.00;;;;5093792;28;20322;-69
2022/10/07 04:12:15;;;;;;;;;;;21.80;44.90;20.60;102104.00;;;;5093109;28;20344;-70
2022/10/07 04:15:01;;;;;;;;;;;21.80;44.90;20.60;102097.00;;;;5093179;28;20255;-69
2022/10/07 04:17:47;;;;;;;;;;;21.80;44.90;20.60;102103.00;;;;5094586;28;19920;-69
2022/10/07 04:20:33;;;;;;;;;;;21.80;44.90;20.60;102094.00;;;;5089059;28;20089;-70
2022/10/07 04:23:19;;;;;;;;;;;21.90;44.90;20.60;102085.00;;;;5091073;28;19920;-69
2022/10/07 04:26:08;;;;;;;;;;;21.80;44.90;20.60;102088.00;;;;5097751;28;20412;-69
2022/10/07 04:28:54;;;;;;;;;;;21.80;44.90;20.60;102094.00;;;;5077206;28;19916;-69
2022/10/07 04:31:39;;;;;;;;;;;21.80;44.90;20.60;102084.00;;;;5096615;28;19981;-69
2022/10/07 04:34:26;;;;;;;;;;;21.80;44.90;20.60;102094.00;;;;5088260;28;19932;-69
2022/10/07 04:37:11;;;;;;;;;;;21.90;45.00;20.60;102081.00;;;;5091784;28;20022;-69
2022/10/07 04:39:58;;;;;;;;;;;21.80;44.90;20.60;102085.00;;;;5095272;28;19920;-69
2022/10/07 04:45:53;;;;;;;;;;;21.80;44.90;20.60;102087.00;;;;5105641;28;19919;-69
2022/10/07 04:48:42;;;;;;;;;;;21.80;44.90;20.60;102083.00;;;;5104534;28;19920;-69
2022/10/07 04:51:29;;;;;;;;;;;21.80;44.90;20.60;102078.00;;;;5093578;28;19923;-69
2022/10/07 04:54:15;;;;;;;;;;;21.80;44.90;20.60;102078.00;;;;5072590;28;19920;-69
2022/10/07 04:57:01;;;;;;;;;;;21.80;44.90;20.60;102077.00;;;;5090242;28;19927;-69
2022/10/07 04:59:47;;;;;;;;;;;21.80;44.90;20.60;102075.00;;;;5092293;28;20258;-69
2022/10/07 05:02:34;;;;;;;;;;;21.80;44.90;20.60;102073.00;;;;5095117;28;20440;-69
2022/10/07 05:05:20;;;;;;;;;;;21.80;44.90;20.60;102069.00;;;;5105528;28;19961;-69
2022/10/07 05:08:06;;;;;;;;;;;21.80;44.90;20.60;102069.00;;;;5097581;28;20358;-69
2022/10/07 05:10:56;;;;;;;;;;;21.80;44.80;20.60;102074.00;;;;5089530;28;19989;-69
2022/10/07 05:13:42;;;;;;;;;;;21.80;44.90;20.60;102072.00;;;;5098025;28;20337;-69
2022/10/07 05:16:27;;;;;;;;;;;21.90;44.90;20.60;102075.00;;;;5111209;27;20516;-69
2022/10/07 05:19:14;;;;;;;;;;;21.80;44.90;20.60;102079.00;;;;5098707;28;19920;-69
2022/10/07 05:22:00;;;;;;;;;;;21.80;44.80;20.60;102072.00;;;;5099067;28;19916;-69
2022/10/07 05:24:46;;;;;;;;;;;21.80;44.80;20.60;102064.00;;;;5095457;28;19927;-66
2022/10/07 05:27:32;;;;;;;;;;;21.80;44.80;20.50;102069.00;;;;5100817;28;19932;-66
2022/10/07 05:30:18;;;;;;;;;;;21.80;44.80;20.60;102065.00;;;;5077551;28;19917;-66
2022/10/07 05:33:04;;;;;;;;;;;21.80;44.80;20.60;102060.00;;;;5068266;28;20262;-66
2022/10/07 05:35:50;;;;;;;;;;;21.80;44.90;20.60;102063.00;;;;5063983;28;19934;-66
2022/10/07 05:38:36;;;;;;;;;;;21.80;44.80;20.60;102063.00;;;;5077907;28;19931;-66
2022/10/07 05:41:22;;;;;;;;;;;21.80;44.80;20.50;102065.00;;;;5073348;28;19924;-66
2022/10/07 05:44:08;;;;;;;;;;;21.80;44.90;20.60;102062.00;;;;5062704;28;19923;-67
2022/10/07 05:46:54;;;;;;;;;;;21.80;44.80;20.50;102059.00;;;;5084912;28;19920;-66
2022/10/07 05:49:40;;;;;;;;;;;21.80;44.80;20.50;102061.00;;;;5077228;28;19915;-66
2022/10/07 05:52:27;;;;;;;;;;;21.80;44.80;20.50;102057.00;;;;5076668;28;19916;-66
2022/10/07 05:55:13;;;;;;;;;;;21.80;44.80;20.50;102055.00;;;;5087475;27;19920;-66
2022/10/07 05:57:59;;;;;;;;;;;21.80;44.80;20.50;102047.00;;;;5072153;28;19920;-66
2022/10/07 06:00:52;;;;;;;;;;;21.80;44.90;20.50;102044.00;;;;5075509;28;20323;-66
2022/10/07 06:03:38;;;;;;;;;;;21.80;44.90;20.50;102048.00;;;;5093867;28;20411;-66
2022/10/07 06:06:25;;;;;;;;;;;21.80;44.80;20.50;102052.00;;;;5095113;28;20014;-66
2022/10/07 06:15:19;;;;;;;;;;;21.70;44.80;20.50;102042.00;;;;5084650;28;19938;-66
2022/10/07 06:18:05;;;;;;;;;;;21.70;44.80;20.50;102043.00;;;;5081113;28;19916;-66
2022/10/07 06:20:54;;;;;;;;;;;21.70;44.80;20.50;102041.00;;;;5060207;28;20315;-66
2022/10/07 06:23:40;;;;;;;;;;;21.70;44.80;20.50;102047.00;;;;5059435;28;19920;-67
2022/10/07 06:26:26;;;;;;;;;;;21.70;44.80;20.50;102041.00;;;;5075189;28;19920;-66
2022/10/07 06:29:12;;;;;;;;;;;21.70;44.80;20.50;102046.00;;;;5080759;28;19924;-66
2022/10/07 06:31:58;;;;;;;;;;;21.80;44.90;20.50;102046.00;;;;5075884;28;20342;-66
2022/10/07 06:34:44;;;;;;;;;;;21.70;44.80;20.50;102049.00;;;;5077636;28;19927;-66
2022/10/07 06:37:31;;;;;;;;;;;21.70;44.80;20.50;102050.00;;;;5072169;28;20108;-66
2022/10/07 06:40:17;;;;;;;;;;;21.70;44.80;20.50;102048.00;;;;5090661;28;19921;-66
2022/10/07 06:43:03;;;;;;;;;;;21.70;44.80;20.50;102055.00;;;;5076560;28;19920;-66
2022/10/07 06:45:49;;;;;;;;;;;21.70;44.80;20.50;102052.00;;;;5079421;28;19927;-66
2022/10/07 06:48:35;;;;;;;;;;;21.70;44.80;20.50;102057.00;;;;5072007;28;19916;-66
2022/10/07 06:51:21;;;;;;;;;;;21.70;44.80;20.50;102048.00;;;;5086912;27;19927;-66
2022/10/07 06:54:07;;;;;;;;;;;21.70;45.50;20.50;102055.00;;;;5075598;28;19916;-66
2022/10/07 06:56:53;;;;;;;;;;;21.70;44.80;20.50;102057.00;;;;5071574;28;19928;-66
2022/10/07 06:59:39;;;;;;;;;;;21.70;44.80;20.50;102060.00;;;;5075053;28;19917;-66
2022/10/07 07:02:26;;;;;;;;;;;21.70;44.80;20.50;102054.00;;;;5072289;28;19916;-66
2022/10/07 07:05:13;;;;;;;;;;;21.70;44.80;20.50;102049.00;;;;5075355;28;19947;-66
2022/10/07 07:07:59;;;;;;;;;;;21.70;44.80;20.50;102052.00;;;;5074415;28;19943;-66
2022/10/07 07:10:45;;;;;;;;;;;21.70;44.80;20.50;102050.00;;;;5077099;28;19963;-66
2022/10/07 07:13:34;;;;;;;;;;;21.70;44.80;20.50;102045.00;;;;5069632;28;20410;-66
2022/10/07 07:16:20;;;;;;;;;;;21.70;44.80;20.50;102038.00;;;;5074994;28;20362;-66
2022/10/07 07:19:07;;;;;;;;;;;21.80;44.80;20.50;102034.00;;;;5085150;28;19954;-66
2022/10/07 07:21:53;;;;;;;;;;;21.70;44.80;20.50;102036.00;;;;5071149;28;19927;-66
2022/10/07 07:24:39;;;;;;;;;;;21.70;44.80;20.50;102035.00;;;;5078705;28;19965;-66
2022/10/07 07:27:25;;;;;;;;;;;21.70;44.80;20.50;102041.00;;;;5072373;28;19916;-66
2022/10/07 07:30:12;;;;;;;;;;;21.80;44.80;20.50;102038.00;;;;5077744;28;19924;-66
2022/10/07 07:32:58;;;;;;;;;;;21.70;44.80;20.50;102036.00;;;;5062205;28;19920;-66
2022/10/07 07:35:44;;;;;;;;;;;21.70;44.80;20.50;102037.00;;;;5081459;27;19924;-66
2022/10/07 07:38:30;;;;;;;;;;;21.70;44.80;20.50;102038.00;;;;5072356;28;19947;-66
2022/10/07 07:41:20;;;;;;;;;;;21.70;44.80;20.50;102035.00;;;;5079349;28;19916;-66
2022/10/07 07:44:10;;;;;;;;;;;21.70;44.80;20.50;102029.00;;;;5094081;27;19922;-66
2022/10/07 07:46:56;;;;;;;;;;;21.70;44.80;20.50;102032.00;;;;5075882;28;19920;-66
2022/10/07 07:49:42;;;;;;;;;;;21.70;44.80;20.50;102035.00;;;;5075504;28;20338;-66
2022/10/07 07:52:28;;;;;;;;;;;21.80;44.80;20.50;102032.00;;;;5076381;28;19922;-66
2022/10/07 07:55:14;;;;;;;;;;;21.70;44.80;20.50;102045.00;;;;5081152;28;19924;-66
2022/10/07 07:58:00;;;;;;;;;;;21.80;44.90;20.50;102034.00;;;;5079616;28;19920;-66
2022/10/07 08:01:22;;;;;;;;;;;21.70;44.80;20.50;102029.00;;;;5077691;28;20277;-74
2022/10/07 08:04:08;;;;;;;;;;;21.70;44.80;20.50;102036.00;;;;5022839;28;20025;-66
2022/10/07 08:06:54;;;;;;;;;;;21.80;44.80;20.50;102044.00;;;;5078857;28;20357;-66
2022/10/07 08:09:40;;;;;;;;;;;21.80;44.80;20.50;102032.00;;;;5083853;28;19989;-66
2022/10/07 08:12:26;;;;;;;;;;;21.80;44.80;20.50;102037.00;;;;5072111;28;20322;-66
2022/10/07 08:15:13;;;;;;;;;;;21.80;44.80;20.50;102033.00;;;;5075381;28;20287;-66
2022/10/07 08:17:59;;;;;;;;;;;21.80;44.80;20.50;102032.00;;;;5075749;28;19928;-66
2022/10/07 08:20:57;;;;;;;;;;;21.80;44.80;20.50;102026.00;;;;5074815;28;19927;-66
2022/10/07 08:23:43;;;;;;;;;;;21.80;44.80;20.50;102018.00;;;;5081036;28;19922;-66
2022/10/07 08:26:30;;;;;;;;;;;21.80;44.90;20.50;102019.00;;;;5098352;28;19916;-66
2022/10/07 08:29:16;;;;;;;;;;;21.70;44.80;20.50;102012.00;;;;5067573;28;19921;-66
2022/10/07 08:32:02;;;;;;;;;;;21.80;44.80;20.50;102021.00;;;;5075593;28;19920;-66
2022/10/07 08:34:48;;;;;;;;;;;21.80;44.90;20.40;102012.00;;;;5089967;28;19923;-66
2022/10/07 08:37:34;;;;;;;;;;;21.80;44.90;20.50;102011.00;;;;5091163;28;19924;-66
2022/10/07 08:40:20;;;;;;;;;;;21.80;44.90;20.50;101999.00;;;;5108798;28;19920;-66
2022/10/07 08:43:07;;;;;;;;;;;21.70;44.80;20.50;102000.00;;;;5102770;28;19920;-66
2022/10/07 08:45:54;;;;;;;;;;;21.80;44.90;20.50;101995.00;;;;5091651;28;19947;-66
2022/10/07 08:48:40;;;;;;;;;;;21.90;45.00;20.40;101987.00;;;;5095546;28;20683;-66
2022/10/07 08:51:47;;;;;;;;;;;21.70;44.80;20.40;101984.00;;;;5094416;28;19995;-66
2022/10/07 08:54:33;;;;;;;;;;;21.70;44.90;20.40;101979.00;;;;5099846;28;19916;-66
2022/10/07 08:57:45;;;;;;;;;;;21.70;44.90;20.40;101972.00;;;;5096002;28;19924;-65
2022/10/07 09:01:14;;;;;;;;;;;21.70;44.90;20.40;101972.00;;;;5105674;27;19919;-66
2022/10/07 09:04:03;;;;;;;;;;;21.70;44.90;20.40;101976.00;;;;5072881;28;20444;-66
2022/10/07 09:06:57;;;;;;;;;;;21.70;44.90;20.40;101977.00;;;;5093191;28;20030;-66
2022/10/07 09:09:52;;;;;;;;;;;21.70;45.00;20.40;101961.00;;;;5093052;28;19920;-66
2022/10/07 09:12:42;;;;;;;;;;;21.70;44.90;20.40;101983.00;;;;5098974;28;19922;-66
2022/10/07 09:15:31;;;;;;;;;;;21.70;44.90;20.40;101964.00;;;;5099949;28;19920;-66
2022/10/07 09:18:24;;;;;;;;;;;21.70;45.00;20.40;101963.00;;;;5095367;28;19920;-69
2022/10/07 09:21:12;;;;;;;;;;;21.70;45.00;20.40;101958.00;;;;5093186;28;19924;-66
2022/10/07 09:24:09;;;;;;;;;;;21.70;44.90;20.40;101947.00;;;;5091468;28;19920;-66
2022/10/07 09:27:00;;;;;;;;;;;21.70;45.00;20.40;101955.00;;;;5094398;28;20376;-66
2022/10/07 09:29:46;;;;;;;;;;;21.70;45.00;20.40;101946.00;;;;5098259;28;19961;-66
2022/10/07 09:32:40;;;;;;;;;;;21.70;45.00;20.40;101948.00;;;;5109262;27;19926;-66
2022/10/07 09:35:28;;;;;;;;;;;21.70;45.00;20.40;101940.00;;;;5099526;28;19942;-66
2022/10/07 09:38:14;;;;;;;;;;;21.70;45.00;20.40;101941.00;;;;5094926;28;19987;-66
2022/10/07 09:41:15;;;;;;;;;;;21.70;44.90;20.40;101937.00;;;;5064505;28;20250;-66
2022/10/07 09:44:05;;;;;;;;;;;21.70;44.90;20.40;101937.00;;;;5095820;28;19923;-66
2022/10/07 09:46:52;;;;;;;;;;;21.60;44.90;20.40;101931.00;;;;5100449;27;20286;-66
2022/10/07 09:49:42;;;;;;;;;;;21.60;44.90;20.40;101939.00;;;;5098729;27;19929;-66
2022/10/07 09:52:29;;;;;;;;;;;21.70;45.00;20.40;101931.00;;;;5097715;28;19916;-66
2022/10/07 09:55:31;;;;;;;;;;;21.70;44.90;20.40;101929.00;;;;5109695;27;20048;-66
2022/10/07 09:58:17;;;;;;;;;;;21.70;45.00;20.40;101915.00;;;;5095426;28;19969;-66
2022/10/07 10:01:03;;;;;;;;;;;21.70;44.90;20.40;101931.00;;;;5095583;28;20072;-66
2022/10/07 10:03:49;;;;;;;;;;;21.70;44.90;20.40;101925.00;;;;5062732;28;19924;-66
2022/10/07 10:06:35;;;;;;;;;;;21.70;44.90;20.40;101916.00;;;;5093233;28;19920;-66
2022/10/07 10:09:23;;;;;;;;;;;21.70;45.00;20.40;101916.00;;;;5095570;28;19920;-66
2022/10/07 10:12:13;;;;;;;;;;;21.70;45.00;20.40;101912.00;;;;5095317;28;20372;-66
2022/10/07 10:14:59;;;;;;;;;;;21.70;45.00;20.40;101907.00;;;;5112373;27;20857;-66
2022/10/07 10:17:45;;;;;;;;;;;21.70;45.00;20.40;101916.00;;;;5105752;27;20143;-66
2022/10/07 10:20:35;;;;;;;;;;;21.80;45.00;20.40;101904.00;;;;5096082;28;20333;-66
2022/10/07 10:23:31;;;;;;;;;;;21.70;45.00;20.40;101909.00;;;;5101119;27;19926;-66
2022/10/07 10:26:30;;;;;;;;;;;21.80;45.00;20.40;101903.00;;;;5102340;27;19923;-66
2022/10/07 10:29:35;;;;;;;;;;;21.70;45.00;20.40;101902.00;;;;5089336;28;19920;-66
2022/10/07 10:32:52;;;;;;;;;;;21.80;45.00;20.40;101897.00;;;;5107325;27;19987;-66
2022/10/07 10:35:55;;;;;;;;;;;21.80;45.00;20.40;101895.00;;;;5107596;27;19924;-66
2022/10/07 10:39:11;;;;;;;;;;;21.80;45.00;20.40;101885.00;;;;5105709;27;20361;-66
2022/10/07 10:41:58;;;;;;;;;;;21.80;45.00;20.40;101884.00;;;;5098724;27;20145;-66
2022/10/07 10:45:12;;;;;;;;;;;21.80;45.00;20.40;101879.00;;;;5090963;28;19927;-66
2022/10/07 10:48:28;;;;;;;;;;;21.80;45.00;20.40;101874.00;;;;5098877;28;19915;-66
2022/10/07 10:51:42;;;;;;;;;;;21.80;45.00;20.40;101878.00;;;;5077097;28;19919;-66
2022/10/07 10:55:06;;;;;;;;;;;21.80;45.00;20.40;101870.00;;;;5113470;27;19947;-66
2022/10/07 10:58:06;;;;;;;;;;;21.80;45.00;20.40;101856.00;;;;5105367;27;20277;-66
2022/10/07 11:01:05;;;;;;;;;;;21.80;45.00;20.40;101847.00;;;;5094545;28;20015;-66
2022/10/07 11:04:29;;;;;;;;;;;21.80;45.00;20.40;101837.00;;;;5096943;28;19916;-66
2022/10/07 11:07:18;;;;;;;;;;;21.80;45.00;20.40;101834.00;;;;5108532;27;19916;-66
2022/10/07 11:10:06;;;;;;;;;;;21.80;45.00;20.40;101835.00;;;;5094290;28;19927;-66
2022/10/07 11:13:21;;;;;;;;;;;21.80;45.00;20.40;101825.00;;;;5081869;28;19971;-66
2022/10/07 11:16:16;;;;;;;;;;;21.80;44.90;20.50;101823.00;;;;5077292;28;19920;-66
2022/10/07 11:19:02;;;;;;;;;;;21.80;44.90;20.50;101814.00;;;;5095834;28;20373;-66
2022/10/07 11:21:49;;;;;;;;;;;21.80;44.90;20.50;101811.00;;;;5096589;28;19924;-66
2022/10/07 11:24:55;;;;;;;;;;;21.80;44.90;20.50;101806.00;;;;5105859;27;19920;-66
2022/10/07 11:27:41;;;;;;;;;;;21.80;44.90;20.50;101799.00;;;;5088056;28;19920;-66
2022/10/07 11:30:30;;;;;;;;;;;21.80;44.80;20.50;101797.00;;;;5091638;28;20101;-66
2022/10/07 11:33:23;;;;;;;;;;;21.90;44.90;20.50;101792.00;;;;5092039;28;19924;-66
2022/10/07 11:36:18;;;;;;;;;;;21.90;44.90;20.50;101784.00;;;;5093928;28;20151;-66
2022/10/07 11:39:04;;;;;;;;;;;21.90;44.90;20.50;101778.00;;;;5101514;27;20388;-66
2022/10/07 11:42:00;;;;;;;;;;;21.90;44.90;20.50;101769.00;;;;5092105;28;20267;-66
2022/10/07 11:44:59;;;;;;;;;;;21.90;44.80;20.50;101775.00;;;;5091171;28;19920;-66
2022/10/07 11:47:50;;;;;;;;;;;21.90;44.80;20.50;101760.00;;;;5096299;27;19916;-66
2022/10/07 11:50:39;;;;;;;;;;;21.90;44.80;20.50;101761.00;;;;5108592;27;19972;-66
2022/10/07 11:53:27;;;;;;;;;;;21.90;44.80;20.50;101750.00;;;;5106231;27;19923;-66
2022/10/07 11:56:19;;;;;;;;;;;21.90;44.80;20.60;101745.00;;;;5092730;28;19928;-66
2022/10/07 11:59:05;;;;;;;;;;;22.00;44.90;20.60;101737.00;;;;5097020;28;20399;-66
2022/10/07 12:01:51;;;;;;;;;;;21.90;44.80;20.60;101726.00;;;;5089782;28;19923;-66
2022/10/07 12:04:37;;;;;;;;;;;22.00;44.80;20.60;101727.00;;;;5091240;28;19945;-66
2022/10/07 12:07:37;;;;;;;;;;;21.90;44.70;20.60;101720.00;;;;5107929;27;19924;-66
2022/10/07 12:10:26;;;;;;;;;;;22.00;44.70;20.60;101721.00;;;;5092284;28;20434;-66
2022/10/07 12:13:12;;;;;;;;;;;22.00;44.70;20.60;101716.00;;;;5101388;27;19931;-66
2022/10/07 12:15:58;;;;;;;;;;;22.00;44.70;20.60;101715.00;;;;5090688;28;20429;-67
2022/10/07 12:19:07;;;;;;;;;;;22.00;44.70;20.60;101707.00;;;;5090766;28;20369;-66
2022/10/07 12:21:59;;;;;;;;;;;22.00;44.70;20.60;101701.00;;;;5103922;27;19924;-67
2022/10/07 12:24:45;;;;;;;;;;;22.00;44.70;20.70;101702.00;;;;5088305;28;20465;-66
2022/10/07 12:27:31;;;;;;;;;;;22.10;44.70;20.70;101689.00;;;;5085991;28;20325;-66
2022/10/07 12:30:48;;;;;;;;;;;22.10;44.70;20.70;101684.00;;;;5088340;28;20370;-66
2022/10/07 12:33:44;;;;;;;;;;;22.10;44.60;20.70;101682.00;;;;5076479;28;19916;-66
2022/10/07 12:36:30;;;;;;;;;;;22.10;44.70;20.70;101679.00;;;;5105379;28;20038;-66
2022/10/07 12:39:16;;;;;;;;;;;22.10;44.60;20.70;101677.00;;;;5105339;28;19916;-66
2022/10/07 12:42:04;;;;;;;;;;;22.10;44.60;20.70;101674.00;;;;5087528;28;20365;-66
2022/10/07 12:44:51;;;;;;;;;;;22.10;44.60;20.70;101669.00;;;;5099917;28;20018;-66
2022/10/07 12:47:39;;;;;;;;;;;22.10;44.50;20.70;101668.00;;;;5093071;28;19927;-66
2022/10/07 12:50:25;;;;;;;;;;;22.10;44.60;20.70;101656.00;;;;5105894;28;20280;-66
2022/10/07 12:53:10;;;;;;;;;;;22.10;44.60;20.70;101659.00;;;;5074849;28;20551;-66
2022/10/07 12:55:56;;;;;;;;;;;22.20;44.60;20.80;101661.00;;;;5095409;28;20716;-66
2022/10/07 13:02:35;;;;;;;;;;;21.90;44.40;20.80;101647.00;;;;5090315;28;19943;-66
2022/10/07 13:05:52;;;;;;;;;;;22.20;44.60;20.80;101637.00;;;;5088938;28;19998;-66
2022/10/07 13:09:03;;;;;;;;;;;22.20;44.60;20.70;101642.00;;;;5094273;28;19953;-66
2022/10/07 13:12:13;;;;;;;;;;;22.20;44.50;20.80;101635.00;;;;5093950;28;20342;-66
2022/10/07 13:15:22;;;;;;;;;;;22.20;44.50;20.80;101635.00;;;;5104732;28;19916;-66
2022/10/07 13:18:16;;;;;;;;;;;22.20;44.50;20.80;101634.00;;;;5089788;28;19970;-65
2022/10/07 13:21:16;;;;;;;;;;;22.20;44.50;20.80;101635.00;;;;5087246;28;19924;-66
2022/10/07 13:24:02;;;;;;;;;;;22.20;44.50;20.80;101630.00;;;;5098260;28;19920;-66
2022/10/07 13:26:48;;;;;;;;;;;22.20;44.50;20.80;101626.00;;;;5094365;28;19916;-66
2022/10/07 13:29:34;;;;;;;;;;;22.30;44.60;20.80;101612.00;;;;5091350;28;19923;-66
2022/10/07 13:32:23;;;;;;;;;;;22.20;44.50;20.80;101617.00;;;;5074879;28;19916;-65
2022/10/07 13:35:29;;;;;;;;;;;22.20;44.50;20.80;101607.00;;;;5113315;27;19925;-66
2022/10/07 13:38:21;;;;;;;;;;;22.20;44.50;20.80;101599.00;;;;5093905;28;20355;-66
2022/10/07 13:41:23;;;;;;;;;;;22.30;44.50;20.80;101606.00;;;;5084140;28;20004;-66
2022/10/07 13:44:11;;;;;;;;;;;22.30;44.40;20.80;101594.00;;;;5073762;28;20254;-66
2022/10/07 13:46:59;;;;;;;;;;;22.30;44.50;20.80;101592.00;;;;5107706;27;20169;-65
2022/10/07 13:49:47;;;;;;;;;;;22.30;44.40;20.90;101586.00;;;;5105865;27;19916;-65
2022/10/07 13:52:38;;;;;;;;;;;22.30;44.40;20.90;101581.00;;;;5089917;28;19927;-65
2022/10/07 13:55:47;;;;;;;;;;;22.30;44.40;20.80;101573.00;;;;5102300;27;20369;-65